Etusivu
METAR-TAF:

METAR-TAF

Lentoasemat :

Frederictonin kansainvälinen lentoasema

Fredericton, New Brunswick, Kanada

Leveyspiiri: 45-52N, Pituuspiiri: 066-32W, korkeus merenpinnasta: 17 m

Tämänhetkinen sää

Tämä raportti tehtiin 1 tunti ja 9 minuuttia sitten, kello 09.00 UTC
Tuuli 5 kn lännestä
Lämpötila -1°C
Kosteus 59%
Ilmanpaine 1009 hPa
Näkyvyys: 14.5 km
selkeää

METAR: CYFC 070900Z AUTO 28005KT 9SM CLR M01/M08 A2979 RMK SLP089

Aika: 07:09 (10:09 UTC)

Sääennuste

Tämä raportti tehtiin 4 tuntia ja 31 minuuttia sitten, kello 05.38 UTC
Ennuste voimassa 07. päivästä klo 06 UTC - 07. päivään klo 18 UTC
Tuuli 10 kn lännestä/luoteesta
Näkyvyys: 10 km
Muutamia pilviä 6000 ft:n korkeudessa
From 07. päivästä klo 1400 UTC
Tuuli 12 kn lännestä
Näkyvyys: 10 km
Hajonneita pilviä 4000 ft:n korkeudessa

TAF: CYFC 070538Z 0706/0718 30010KT P6SM FEW060 FM071400 28012KT P6SM BKN040 RMK FCST BASED ON AUTO OBS. NXT FCST BY 071200Z

Säähavainnot ja -ennusteet yli 4000 lentoasemalta (METAR- ja TAF-raportit).

Käytössä olevat sääasemat on merkitty karttaan keltaisilla ja punaisilla pisteillä.

Aseta hiiri pisteen päälle nähdäksesi sääaseman nimen.

Klikkaa sitten nähdäksesi säähavainnot ja -ennusteet.

Kartan vaihtaminen: klikkaa mustalla rastilla varustettuja vihreitä pisteitä, niin voit zoomata sisään; viivalla varustettua vihreää pistettä, niin voit zoomata ulos tai vihreitä nuolia, niin pääset viereisille kartoille.


METAR-TAF: